Time;durP1;ratioP1;P1;durP2;ratioP2;P2;SDS_P1;SDS_P2;PMS_P1;PMS_P2;Temp;Humidity;BMP_temperature;BMP_pressure;BME280_temperature;BME280_humidity;BME280_pressure;Samples;Min_cycle;Max_cycle;Signal;HPM_P1;HPM_P2
2023/09/06 00:00:43;;;;;;;;;23.75;19.25;;;;;26.71;47.67;100945.13;6183935;22;45278;-82
2023/09/06 00:03:10;;;;;;;;;18.00;18.00;;;;;26.80;47.67;100962.25;6185685;23;45289;-81
2023/09/06 00:05:41;;;;;;;;;17.00;17.00;;;;;26.70;48.18;100951.63;6185406;22;45378;-83
2023/09/06 00:08:08;;;;;;;;;20.00;17.00;;;;;26.74;48.06;100961.13;6184319;23;45324;-81
2023/09/06 00:10:33;;;;;;;;;24.00;18.50;;;;;26.72;48.35;100963.19;6183747;22;45383;-86
2023/09/06 00:12:58;;;;;;;;;19.50;18.00;;;;;26.68;48.51;100972.75;6183093;22;47215;-82
2023/09/06 00:15:24;;;;;;;;;27.50;19.75;;;;;26.59;48.70;100962.94;6183689;23;45388;-82
2023/09/06 00:17:49;;;;;;;;;24.75;21.00;;;;;26.60;48.80;100959.19;6183890;22;45208;-81
2023/09/06 00:20:20;;;;;;;;;22.50;20.25;;;;;26.58;48.47;100955.78;6182658;23;63339;-82
2023/09/06 00:23:00;;;;;;;;;23.00;19.75;;;;;26.56;48.96;100952.38;6183228;23;45213;-81
2023/09/06 00:25:26;;;;;;;;;17.00;17.00;;;;;26.38;49.09;100934.44;6182814;22;45276;-85
2023/09/06 00:27:53;;;;;;;;;19.25;17.50;;;;;26.55;49.04;100956.97;6183682;22;45399;-82
2023/09/06 00:30:19;;;;;;;;;23.50;21.00;;;;;26.52;49.10;100945.59;6183061;22;46623;-84
2023/09/06 00:32:45;;;;;;;;;22.50;19.00;;;;;26.42;49.00;100940.38;6183392;22;45162;-82
2023/09/06 00:35:12;;;;;;;;;19.25;18.00;;;;;26.48;49.36;100956.03;6183344;22;45194;-82
2023/09/06 00:37:42;;;;;;;;;23.50;20.75;;;;;26.47;48.87;100953.47;6182928;23;45399;-83
2023/09/06 00:40:17;;;;;;;;;19.50;18.50;;;;;26.45;49.20;100950.94;6182415;22;45769;-81
2023/09/06 00:42:50;;;;;;;;;22.75;19.75;;;;;26.44;49.08;100963.72;6183341;22;45241;-82
2023/09/06 00:45:19;;;;;;;;;23.50;17.00;;;;;26.44;49.32;100952.81;6183403;22;45260;-82
2023/09/06 00:47:45;;;;;;;;;17.50;15.50;;;;;26.40;49.24;100956.06;6183667;23;45426;-84
2023/09/06 00:50:14;;;;;;;;;24.75;20.75;;;;;26.40;49.70;100959.63;6183440;22;45782;-83
2023/09/06 00:52:40;;;;;;;;;21.00;18.75;;;;;26.33;49.56;100952.34;6181127;23;45298;-84
2023/09/06 00:55:06;;;;;;;;;22.00;21.00;;;;;26.34;49.74;100962.22;6186312;22;45260;-82
2023/09/06 00:57:32;;;;;;;;;21.50;20.00;;;;;26.32;49.53;100961.56;6184715;22;45469;-86
2023/09/06 00:59:59;;;;;;;;;23.25;22.50;;;;;26.28;49.46;100961.03;6209250;22;47004;-82
2023/09/06 01:02:26;;;;;;;;;22.00;19.00;;;;;26.22;49.89;100956.31;6189251;22;45270;-81
2023/09/06 01:04:51;;;;;;;;;22.00;18.00;;;;;26.08;50.03;100929.81;6189789;22;45703;-80
2023/09/06 01:07:18;;;;;;;;;23.00;21.25;;;;;26.08;49.99;100933.41;6189856;23;45567;-81
2023/09/06 01:09:44;;;;;;;;;28.25;20.75;;;;;26.06;50.17;100940.06;6188602;22;45296;-80
2023/09/06 01:12:12;;;;;;;;;14.50;14.50;;;;;26.14;50.34;100956.34;6186323;22;45336;-83
2023/09/06 01:14:39;;;;;;;;;30.00;24.00;;;;;26.08;50.70;100954.34;6159217;23;45370;-83
2023/09/06 01:17:09;;;;;;;;;20.50;18.75;;;;;25.94;50.76;100931.41;6184405;22;45165;-84
2023/09/06 01:19:40;;;;;;;;;25.33;22.33;;;;;26.04;50.96;100959.31;6182729;22;45203;-81
2023/09/06 01:22:16;;;;;;;;;24.67;21.00;;;;;25.97;51.31;100952.88;6182621;22;45121;-82
2023/09/06 01:24:42;;;;;;;;;24.00;21.33;;;;;25.88;51.41;100946.59;6181375;23;45282;-82
2023/09/06 01:27:09;;;;;;;;;27.67;22.00;;;;;25.86;51.56;100940.47;6183522;22;45549;-81
2023/09/06 01:29:35;;;;;;;;;22.67;20.00;;;;;25.77;51.21;100940.66;6182731;22;45372;-82
2023/09/06 01:32:00;;;;;;;;;24.00;21.33;;;;;25.70;51.77;100926.91;6181002;23;45332;-84
2023/09/06 01:34:25;;;;;;;;;24.00;23.00;;;;;25.83;51.81;100957.19;6182589;23;57734;-83
2023/09/06 01:36:51;;;;;;;;;19.00;17.33;;;;;25.70;51.68;100937.81;6182932;22;45268;-81
2023/09/06 01:39:17;;;;;;;;;21.33;18.33;;;;;25.72;52.09;100952.09;6182082;23;45339;-83
2023/09/06 01:41:42;;;;;;;;;23.00;22.00;;;;;25.72;52.04;100954.84;6181692;23;53489;-82
2023/09/06 01:44:07;;;;;;;;;25.00;21.67;;;;;25.56;52.13;100939.38;6182729;22;45323;-83
2023/09/06 01:46:32;;;;;;;;;22.00;21.00;;;;;25.64;52.33;100943.91;6183409;22;45261;-83
2023/09/06 01:48:59;;;;;;;;;17.75;17.75;;;;;25.53;52.33;100938.88;6179794;23;73487;-83
2023/09/06 01:51:25;;;;;;;;;23.25;21.25;;;;;25.58;52.70;100948.22;6182743;23;45217;-81
2023/09/06 01:53:51;;;;;;;;;24.33;21.00;;;;;25.59;52.79;100958.06;6180410;23;45330;-82
2023/09/06 01:56:16;;;;;;;;;25.75;21.00;;;;;25.59;53.06;100954.50;6206190;22;45233;-82
2023/09/06 01:58:41;;;;;;;;;20.33;20.33;;;;;25.48;52.67;100943.97;6182082;23;57085;-83
2023/09/06 02:01:07;;;;;;;;;19.00;19.00;;;;;25.56;53.07;100961.16;6182500;23;45114;-82
2023/09/06 02:03:33;;;;;;;;;20.00;18.33;;;;;25.53;52.76;100961.50;6182426;23;45323;-82
2023/09/06 02:06:03;;;;;;;;;21.33;18.00;;;;;25.48;53.12;100963.03;6184053;22;45427;-82
2023/09/06 02:08:28;;;;;;;;;17.00;17.00;;;;;25.28;53.36;100940.81;6183816;23;45189;-83
2023/09/06 02:10:54;;;;;;;;;18.00;16.25;;;;;25.39;53.23;100966.78;6183568;23;49442;-85
2023/09/06 02:13:19;;;;;;;;;21.67;19.33;;;;;25.33;53.54;100953.88;6183711;23;45299;-81
2023/09/06 02:15:44;;;;;;;;;20.67;18.67;;;;;25.24;53.82;100955.75;6183935;23;45563;-82
2023/09/06 02:18:15;;;;;;;;;19.67;18.67;;;;;25.27;53.73;100966.34;6182605;23;65226;-83
2023/09/06 02:20:41;;;;;;;;;19.67;16.67;;;;;25.20;54.16;100957.97;6181375;23;45287;-81
2023/09/06 02:23:07;;;;;;;;;20.00;20.00;;;;;25.05;54.01;100937.09;6183721;22;45376;-83
2023/09/06 02:25:33;;;;;;;;;19.33;17.67;;;;;25.17;54.28;100961.06;6183963;23;45383;-85
2023/09/06 02:28:06;;;;;;;;;19.33;16.33;;;;;25.14;54.44;100966.84;6183647;23;47149;-81
2023/09/06 02:30:37;;;;;;;;;19.00;17.75;;;;;25.06;54.80;100958.69;6183996;23;45747;-80
2023/09/06 02:33:04;;;;;;;;;19.00;19.00;;;;;24.93;54.81;100942.00;6184005;22;45358;-83
2023/09/06 02:35:30;;;;;;;;;21.25;16.75;;;;;25.05;54.71;100956.13;6209251;22;45233;-81
2023/09/06 02:37:56;;;;;;;;;21.33;18.33;;;;;25.03;55.17;100958.19;6186752;22;46009;-81
2023/09/06 02:40:21;;;;;;;;;16.33;14.00;;;;;25.00;55.11;100959.31;6186072;22;45304;-80
2023/09/06 02:42:51;;;;;;;;;19.00;18.33;;;;;24.91;54.85;100942.16;6186120;23;45699;-82
2023/09/06 02:45:17;;;;;;;;;19.67;14.67;;;;;24.98;54.93;100953.19;6185001;22;45412;-82
2023/09/06 02:47:50;;;;;;;;;17.33;14.33;;;;;24.98;54.86;100955.91;6184139;23;45253;-81
2023/09/06 02:50:17;;;;;;;;;12.67;12.67;;;;;24.99;54.84;100957.63;6185152;22;45344;-82
2023/09/06 02:52:45;;;;;;;;;16.00;15.00;;;;;24.98;55.29;100947.75;6184165;22;45216;-83
2023/09/06 02:55:13;;;;;;;;;17.00;16.00;;;;;24.98;55.48;100955.91;6183913;23;45538;-82
2023/09/06 02:57:40;;;;;;;;;18.33;15.00;;;;;24.95;55.12;100959.84;6186682;23;45388;-83
2023/09/06 03:00:19;;;;;;;;;21.00;19.00;;;;;24.91;55.57;100966.66;6187537;22;45315;-84
2023/09/06 03:02:46;;;;;;;;;23.67;17.33;;;;;24.69;55.66;100931.94;6185170;22;45280;-82
2023/09/06 03:05:17;;;;;;;;;18.33;16.33;;;;;24.85;55.32;100963.75;6183728;23;45363;-81
2023/09/06 03:07:43;;;;;;;;;18.00;16.67;;;;;24.74;55.75;100947.75;6183579;22;45973;-82
2023/09/06 03:10:09;;;;;;;;;18.33;18.33;;;;;24.77;55.65;100953.72;6183229;22;45335;-80
2023/09/06 03:12:35;;;;;;;;;15.67;15.67;;;;;24.81;56.00;100960.53;6183609;23;45246;-83
2023/09/06 03:15:00;;;;;;;;;17.00;15.67;;;;;24.82;55.90;100958.66;6184065;22;45406;-82
2023/09/06 03:17:26;;;;;;;;;20.25;17.25;;;;;24.80;56.02;100957.97;6181505;23;47130;-81
2023/09/06 03:19:57;;;;;;;;;18.00;18.00;;;;;24.70;56.33;100953.53;6184100;23;45299;-83
2023/09/06 03:22:23;;;;;;;;;19.33;17.33;;;;;24.62;56.28;100945.41;6183243;22;45237;-80
2023/09/06 03:24:55;;;;;;;;;21.00;15.00;;;;;24.73;56.44;100965.09;6183892;23;45411;-81
2023/09/06 03:27:23;;;;;;;;;19.00;16.67;;;;;24.70;56.40;100958.97;6183059;22;45207;-80
2023/09/06 03:29:50;;;;;;;;;17.00;16.00;;;;;24.68;56.96;100960.16;6182307;23;65191;-81
2023/09/06 03:32:17;;;;;;;;;16.00;15.00;;;;;24.47;56.66;100922.56;6183066;23;45362;-80
2023/09/06 03:34:45;;;;;;;;;15.67;15.67;;;;;24.61;56.34;100949.13;6183070;22;45455;-80
2023/09/06 03:37:11;;;;;;;;;21.00;13.00;;;;;24.53;56.95;100930.06;6182596;22;45400;-81
2023/09/06 03:39:42;;;;;;;;;23.67;19.67;;;;;24.57;56.82;100946.91;6182951;22;45430;-81
2023/09/06 03:42:08;;;;;;;;;13.00;13.00;;;;;24.58;56.85;100943.16;6182721;22;45381;-81
2023/09/06 03:44:38;;;;;;;;;17.00;17.00;;;;;24.55;57.49;100949.78;6183968;22;45462;-80
2023/09/06 03:47:05;;;;;;;;;23.67;20.67;;;;;24.53;57.18;100957.28;6183210;22;46619;-81
2023/09/06 03:49:34;;;;;;;;;20.33;19.33;;;;;24.51;57.39;100966.63;6183426;22;45279;-81
2023/09/06 03:52:00;;;;;;;;;20.67;18.33;;;;;24.46;57.73;100964.38;6183271;22;45272;-82
2023/09/06 03:54:25;;;;;;;;;18.67;17.67;;;;;24.37;57.35;100955.38;6183497;23;45415;-80
2023/09/06 03:56:53;;;;;;;;;12.33;10.33;;;;;24.35;57.79;100948.38;6183191;23;45194;-81
2023/09/06 03:59:19;;;;;;;;;21.00;19.00;;;;;24.35;57.62;100951.97;6181803;23;45489;-81
2023/09/06 04:01:45;;;;;;;;;14.67;14.00;;;;;24.40;57.87;100973.22;6183886;23;45286;-82
2023/09/06 04:04:12;;;;;;;;;17.67;17.67;;;;;24.28;57.36;100945.47;6183410;23;45208;-82
2023/09/06 04:06:38;;;;;;;;;15.00;12.00;;;;;24.33;57.60;100972.16;6183459;22;45268;-80
2023/09/06 04:09:05;;;;;;;;;15.67;15.67;;;;;24.31;58.03;100960.63;6183651;23;45236;-83
2023/09/06 04:11:31;;;;;;;;;19.33;18.00;;;;;24.23;57.86;100949.72;6182068;22;45157;-81
2023/09/06 04:13:56;;;;;;;;;19.33;18.00;;;;;24.32;58.20;100979.47;6183766;22;45213;-84
2023/09/06 04:16:22;;;;;;;;;16.00;16.00;;;;;24.28;58.23;100971.78;6181439;23;45655;-81
2023/09/06 04:18:48;;;;;;;;;20.67;17.67;;;;;24.28;57.77;100985.38;6183488;23;45186;-82
2023/09/06 04:21:13;;;;;;;;;21.00;18.67;;;;;24.24;57.77;100978.59;6183816;22;45409;-81
2023/09/06 04:23:39;;;;;;;;;18.67;17.67;;;;;24.19;57.79;100967.34;6184004;23;45304;-82
2023/09/06 04:26:04;;;;;;;;;19.67;18.00;;;;;24.08;58.26;100961.19;6183996;22;45284;-84
2023/09/06 04:28:30;;;;;;;;;18.67;18.67;;;;;24.09;58.49;100967.50;6183404;22;45261;-81
2023/09/06 04:30:56;;;;;;;;;19.67;19.00;;;;;24.04;58.55;100957.09;6183464;22;45281;-81
2023/09/06 04:33:22;;;;;;;;;18.00;18.00;;;;;24.12;58.23;100976.16;6183563;22;45482;-83
2023/09/06 04:35:49;;;;;;;;;17.00;16.67;;;;;23.98;58.78;100952.34;6182684;23;46112;-81
2023/09/06 04:38:19;;;;;;;;;21.67;20.00;;;;;24.05;58.68;100964.25;6183038;22;45235;-81
2023/09/06 04:40:46;;;;;;;;;20.33;17.00;;;;;23.99;58.47;100961.34;6182601;23;45294;-81
2023/09/06 04:43:13;;;;;;;;;20.67;17.00;;;;;24.00;58.61;100965.75;6183302;22;45414;-82
2023/09/06 04:45:39;;;;;;;;;19.00;17.67;;;;;24.04;58.93;100972.56;6183293;22;46087;-81
2023/09/06 04:48:09;;;;;;;;;19.33;15.67;;;;;23.97;58.83;100966.09;6183328;22;45213;-81
2023/09/06 04:50:45;;;;;;;;;13.00;13.00;;;;;23.97;59.16;100975.09;6183430;22;45350;-81
2023/09/06 04:53:12;;;;;;;;;13.33;13.33;;;;;23.88;59.22;100959.75;6184120;22;45207;-84
2023/09/06 04:55:39;;;;;;;;;22.33;20.00;;;;;23.96;59.25;100967.97;6183754;23;45954;-86
2023/09/06 04:58:06;;;;;;;;;18.33;16.33;;;;;23.82;59.20;100958.53;6183905;22;45192;-81
2023/09/06 05:00:35;;;;;;;;;18.67;16.33;;;;;23.92;59.53;100982.84;6183023;22;45254;-82
2023/09/06 05:03:00;;;;;;;;;18.33;17.33;;;;;23.85;59.68;100973.69;6183004;22;45240;-81
2023/09/06 05:05:25;;;;;;;;;16.33;14.33;;;;;23.79;59.07;100966.16;6180579;23;46142;-81
2023/09/06 05:07:51;;;;;;;;;17.33;17.33;;;;;23.78;59.19;100964.47;6183917;22;45339;-82
2023/09/06 05:10:17;;;;;;;;;21.00;17.00;;;;;23.91;59.88;100983.03;6184573;23;54261;-81
2023/09/06 05:12:43;;;;;;;;;16.00;16.00;;;;;23.78;59.37;100969.91;6184366;22;45434;-83
2023/09/06 05:15:09;;;;;;;;;20.00;18.33;;;;;23.70;60.01;100953.56;6183817;22;45404;-83
2023/09/06 05:17:35;;;;;;;;;16.67;16.67;;;;;23.77;59.56;100971.75;6184443;22;45267;-82
2023/09/06 05:20:35;;;;;;;;;16.33;14.33;;;;;23.88;59.55;100984.22;6183622;22;45827;-81
2023/09/06 05:23:02;;;;;;;;;18.00;17.33;;;;;23.90;60.03;100981.31;6183422;22;45360;-80
2023/09/06 05:25:28;;;;;;;;;19.33;19.00;;;;;23.87;60.35;100977.06;6182929;22;45323;-83
2023/09/06 05:27:57;;;;;;;;;19.33;18.00;;;;;23.91;59.69;100983.03;6182297;22;45145;-82
2023/09/06 05:30:23;;;;;;;;;21.00;17.67;;;;;23.91;59.63;100978.44;6180531;23;45189;-78
2023/09/06 05:32:48;;;;;;;;;17.33;17.33;;;;;23.81;60.25;100955.97;6182615;22;45502;-81
2023/09/06 05:35:13;;;;;;;;;22.33;17.00;;;;;23.87;60.57;100981.66;6182610;23;45330;-83
2023/09/06 05:37:40;;;;;;;;;18.33;18.33;;;;;23.89;60.37;100983.19;6182975;23;45320;-84
2023/09/06 05:40:06;;;;;;;;;19.33;16.67;;;;;23.91;60.28;100978.44;6183368;22;45321;-83
2023/09/06 05:42:32;;;;;;;;;19.00;18.00;;;;;23.95;60.32;100987.97;6183913;22;45764;-85
2023/09/06 05:44:58;;;;;;;;;20.33;18.00;;;;;23.92;60.54;100974.72;6184814;23;45723;-83
2023/09/06 05:47:23;;;;;;;;;20.00;20.00;;;;;23.89;60.49;100980.47;6180680;23;45368;-80
2023/09/06 05:49:52;;;;;;;;;17.67;17.33;;;;;23.89;60.86;100985.06;6182866;23;45368;-79
2023/09/06 05:52:17;;;;;;;;;20.67;18.33;;;;;23.93;60.66;101006.28;6185023;22;45482;-81
2023/09/06 05:54:44;;;;;;;;;25.00;20.33;;;;;23.93;60.50;100991.88;6183667;23;45158;-80
2023/09/06 05:57:09;;;;;;;;;21.33;18.67;;;;;23.96;60.89;100996.97;6183952;22;45378;-82
2023/09/06 05:59:36;;;;;;;;;19.33;16.67;;;;;23.97;60.79;100999.53;6185669;23;45335;-84
2023/09/06 06:02:01;;;;;;;;;14.67;14.67;;;;;23.93;60.17;100987.28;6186022;22;45461;-82
2023/09/06 06:04:26;;;;;;;;;22.67;17.33;;;;;24.06;60.28;101001.25;6190095;22;45255;-83
2023/09/06 06:06:52;;;;;;;;;26.67;22.33;;;;;24.10;60.39;100999.94;6188070;22;45304;-82
2023/09/06 06:09:21;;;;;;;;;16.33;16.33;;;;;24.20;60.04;101010.66;6183977;23;53441;-84
2023/09/06 06:11:47;;;;;;;;;20.00;18.67;;;;;24.15;59.85;100995.88;6185721;22;45167;-82
2023/09/06 06:14:12;;;;;;;;;17.67;16.00;;;;;24.18;59.52;100990.94;6183806;23;46369;-84
2023/09/06 06:16:38;;;;;;;;;17.67;17.67;;;;;24.27;59.21;101003.56;6184215;22;45249;-81
2023/09/06 06:19:03;;;;;;;;;18.33;17.33;;;;;24.37;59.26;101009.75;6182524;23;45305;-82
2023/09/06 06:21:29;;;;;;;;;16.67;13.00;;;;;24.41;58.93;101018.41;6182310;23;45522;-83
2023/09/06 06:23:55;;;;;;;;;21.67;18.00;;;;;24.34;59.11;100990.16;6181742;23;45257;-82
2023/09/06 06:26:21;;;;;;;;;17.00;15.67;;;;;24.53;58.46;101011.66;6180947;22;45347;-80
2023/09/06 06:28:48;;;;;;;;;21.00;18.00;;;;;24.69;58.26;101017.13;6181786;23;45269;-79
2023/09/06 06:31:13;;;;;;;;;16.67;13.67;;;;;24.74;57.74;101015.75;6182462;22;45471;-80
2023/09/06 06:33:38;;;;;;;;;16.67;15.67;;;;;24.83;57.71;101015.59;6181245;23;45981;-80
2023/09/06 06:36:05;;;;;;;;;18.00;16.00;;;;;24.89;57.82;101011.38;6181134;23;57623;-82
2023/09/06 06:38:31;;;;;;;;;13.33;13.33;;;;;24.91;57.15;101023.78;6181807;22;45319;-84
2023/09/06 06:40:57;;;;;;;;;17.00;16.25;;;;;24.84;57.08;101002.84;6183208;22;45216;-81
2023/09/06 06:43:23;;;;;;;;;15.00;15.00;;;;;24.92;56.93;101027.34;6186316;22;45251;-90
2023/09/06 06:45:55;;;;;;;;;10.75;10.25;;;;;24.96;56.26;101017.81;6183091;23;45300;-82
2023/09/06 06:48:21;;;;;;;;;10.75;10.00;;;;;25.04;55.72;101020.59;6186768;23;45238;-81
2023/09/06 06:50:47;;;;;;;;;13.33;13.33;;;;;25.12;55.54;101023.31;6185002;22;45161;-83
2023/09/06 06:53:12;;;;;;;;;12.33;12.33;;;;;25.12;55.43;101008.84;6185742;22;46516;-82
2023/09/06 06:55:38;;;;;;;;;9.00;9.00;;;;;25.31;54.65;101011.22;6184624;23;45260;-84
2023/09/06 06:58:10;;;;;;;;;10.75;10.75;;;;;25.32;54.63;101010.22;6187454;22;45359;-88
2023/09/06 07:00:37;;;;;;;;;13.25;12.75;;;;;25.36;54.96;101021.59;6188700;22;45121;-81
2023/09/06 07:03:06;;;;;;;;;9.75;9.75;;;;;25.21;55.27;101003.22;6185796;23;46440;-85
2023/09/06 07:05:32;;;;;;;;;12.00;12.00;;;;;25.41;54.51;101030.13;6186779;23;45363;-81
2023/09/06 07:07:57;;;;;;;;;14.25;13.00;;;;;25.45;54.32;101026.03;6186601;23;45378;-86
2023/09/06 07:10:22;;;;;;;;;12.75;11.25;;;;;25.53;54.18;101036.91;6189082;23;45954;-84
2023/09/06 07:12:51;;;;;;;;;10.50;8.75;;;;;25.56;54.22;101025.66;6188741;23;46503;-84
2023/09/06 07:15:19;;;;;;;;;10.50;9.75;;;;;25.60;53.97;101035.19;6186784;23;45201;-83
2023/09/06 07:17:44;;;;;;;;;10.00;10.00;;;;;25.62;54.28;101033.13;6179568;23;45412;-84
2023/09/06 07:20:10;;;;;;;;;14.00;13.75;;;;;25.69;54.23;101036.06;6185907;22;45430;-81
2023/09/06 07:22:35;;;;;;;;;8.00;8.00;;;;;25.60;54.15;101037.91;6190150;22;45469;-83
2023/09/06 07:25:01;;;;;;;;;14.00;14.00;;;;;25.56;54.28;101036.56;6186800;23;50919;-81
2023/09/06 07:27:27;;;;;;;;;13.00;12.75;;;;;25.55;54.16;101043.03;6186047;23;45315;-82
2023/09/06 07:29:52;;;;;;;;;13.50;13.00;;;;;25.65;54.06;101043.69;6188660;22;45362;-82
2023/09/06 07:32:17;;;;;;;;;20.25;14.25;;;;;25.73;53.85;101049.16;6186428;23;61378;-80
2023/09/06 07:34:44;;;;;;;;;12.75;12.00;;;;;25.75;53.58;101047.09;6183221;23;52300;-87
2023/09/06 07:37:10;;;;;;;;;21.33;17.00;;;;;25.77;53.68;101042.31;6183839;22;45255;-80
2023/09/06 07:39:35;;;;;;;;;16.25;14.50;;;;;25.65;53.74;101018.31;6184008;22;45288;-79
2023/09/06 07:42:02;;;;;;;;;20.00;17.00;;;;;25.85;53.45;101042.31;6182305;22;46556;-81
2023/09/06 07:44:30;;;;;;;;;16.50;15.25;;;;;25.90;53.37;101044.50;6157184;23;45662;-80
2023/09/06 07:46:55;;;;;;;;;16.25;16.00;;;;;25.84;53.25;101035.16;6184307;22;45597;-80
2023/09/06 07:49:21;;;;;;;;;14.50;12.75;;;;;26.00;53.06;101049.75;6186704;22;53195;-81
2023/09/06 07:51:46;;;;;;;;;14.50;14.25;;;;;26.04;53.21;101046.53;6185570;23;45321;-80
2023/09/06 07:54:11;;;;;;;;;15.75;15.75;;;;;26.10;53.18;101044.97;6181656;23;65875;-81
2023/09/06 07:56:38;;;;;;;;;16.75;15.00;;;;;26.20;52.73;101056.53;6182036;23;59234;-80
2023/09/06 07:59:03;;;;;;;;;15.00;13.00;;;;;26.26;52.58;101058.53;6183124;22;45544;-82
2023/09/06 08:01:29;;;;;;;;;15.75;15.50;;;;;26.29;52.32;101066.34;6184583;23;45355;-81
2023/09/06 08:03:55;;;;;;;;;18.00;16.75;;;;;26.38;52.34;101065.31;6185064;23;45275;-83
2023/09/06 08:06:21;;;;;;;;;16.00;14.75;;;;;26.48;51.74;101069.72;6184233;23;45253;-80
2023/09/06 08:08:47;;;;;;;;;12.00;9.25;;;;;26.53;51.78;101070.88;6183765;23;45243;-80
2023/09/06 08:11:16;;;;;;;;;14.25;13.25;;;;;26.56;51.78;101073.25;6183556;22;45351;-81
2023/09/06 08:13:41;;;;;;;;;19.00;16.50;;;;;26.59;51.75;101072.06;6183250;22;45341;-84
2023/09/06 08:16:07;;;;;;;;;15.00;15.00;;;;;26.58;51.97;101063.03;6183669;22;45371;-83
2023/09/06 08:18:32;;;;;;;;;15.00;13.75;;;;;26.71;51.43;101067.91;6184272;22;45520;-83
2023/09/06 08:20:58;;;;;;;;;11.00;9.50;;;;;26.79;51.24;101076.03;6206778;22;47997;-81
2023/09/06 08:23:23;;;;;;;;;15.00;14.00;;;;;26.81;51.35;101075.84;6184361;22;45335;-83
2023/09/06 08:25:48;;;;;;;;;14.00;11.75;;;;;26.91;51.08;101071.84;6184381;23;45285;-82
2023/09/06 08:28:15;;;;;;;;;15.75;15.75;;;;;26.98;50.64;101066.53;6184079;23;45553;-79
2023/09/06 08:30:42;;;;;;;;;15.75;12.25;;;;;27.06;50.78;101063.75;6182589;23;45384;-81
2023/09/06 08:33:11;;;;;;;;;12.50;11.00;;;;;27.15;50.14;101064.56;6185593;23;45281;-80
2023/09/06 08:35:36;;;;;;;;;13.00;12.25;;;;;27.05;50.21;101045.69;6188053;23;45378;-84
2023/09/06 08:38:02;;;;;;;;;13.50;13.50;;;;;27.25;49.77;101062.44;6183688;23;45357;-85
2023/09/06 08:40:27;;;;;;;;;14.50;11.00;;;;;27.36;49.56;101070.19;6183855;22;45409;-84
2023/09/06 08:42:55;;;;;;;;;17.00;14.75;;;;;27.29;49.86;101052.84;6182024;23;68503;-79
2023/09/06 08:45:21;;;;;;;;;15.50;15.00;;;;;27.36;49.43;101075.66;6188269;22;45280;-81
2023/09/06 08:47:48;;;;;;;;;9.00;9.00;;;;;27.41;49.14;101073.22;6189069;22;45312;-81
2023/09/06 08:50:14;;;;;;;;;18.50;15.50;;;;;27.29;48.88;101050.94;6184939;23;46470;-80
2023/09/06 08:52:41;;;;;;;;;13.00;13.00;;;;;27.44;48.60;101072.00;6181869;23;45532;-83
2023/09/06 08:55:10;;;;;;;;;12.25;11.25;;;;;27.40;48.49;101055.13;6181766;23;45490;-82
2023/09/06 08:57:39;;;;;;;;;10.75;8.50;;;;;27.51;48.24;101065.63;6183293;23;45591;-84
2023/09/06 09:00:08;;;;;;;;;12.25;11.50;;;;;27.54;48.29;101078.91;6183334;22;45446;-80
2023/09/06 09:02:33;;;;;;;;;14.75;12.00;;;;;27.58;48.00;101079.38;6182577;22;45307;-80
2023/09/06 09:05:00;;;;;;;;;10.75;10.25;;;;;27.61;47.92;101079.88;6184641;22;45410;-81
2023/09/06 09:07:26;;;;;;;;;10.50;10.50;;;;;27.66;48.17;101068.41;6181777;23;45551;-87
2023/09/06 09:09:56;;;;;;;;;15.75;13.00;;;;;27.79;48.46;101073.22;6183793;23;45360;-82
2023/09/06 09:12:31;;;;;;;;;16.60;14.40;;;;;27.83;47.31;101067.19;6185223;22;45427;-80
2023/09/06 09:14:58;;;;;;;;;20.75;18.75;;;;;27.86;47.53;101065.97;6184548;22;45377;-88
2023/09/06 09:17:25;;;;;;;;;13.75;13.75;;;;;27.99;47.16;101066.16;6184752;22;45561;-81
2023/09/06 09:19:54;;;;;;;;;11.00;11.00;;;;;28.07;46.94;101059.75;6192171;22;46294;-82
2023/09/06 09:22:24;;;;;;;;;24.50;24.00;;;;;28.11;46.41;101070.13;6190365;22;45342;-85
2023/09/06 09:24:50;;;;;;;;;14.50;13.50;;;;;28.09;47.06;101066.72;6185834;22;45348;-79
2023/09/06 09:27:19;;;;;;;;;10.00;10.00;;;;;28.03;46.28;101045.63;6188350;22;45273;-88
2023/09/06 09:29:47;;;;;;;;;7.75;7.50;;;;;28.18;46.79;101053.81;6184226;22;46301;-84
2023/09/06 09:32:13;;;;;;;;;9.20;9.20;;;;;28.24;46.96;101038.53;6182244;22;45359;-85
2023/09/06 09:34:40;;;;;;;;;11.20;10.60;;;;;28.41;45.94;101059.22;6183373;23;45348;-86
2023/09/06 09:37:08;;;;;;;;;10.75;9.75;;;;;28.42;45.86;101060.91;6183689;23;45292;-88
2023/09/06 09:39:34;;;;;;;;;12.25;10.25;;;;;28.49;45.62;101067.28;6183439;22;46144;-89
2023/09/06 09:41:59;;;;;;;;;12.50;8.50;;;;;28.52;45.32;101069.66;6183724;22;45356;-87
2023/09/06 09:44:25;;;;;;;;;12.75;8.75;;;;;28.44;45.66;101054.19;6184141;23;45340;-87
2023/09/06 09:46:57;;;;;;;;;8.75;8.75;;;;;28.58;45.60;101074.34;6208653;22;45416;-89
2023/09/06 09:49:24;;;;;;;;;9.25;8.75;;;;;28.62;45.03;101067.44;6185956;23;46034;-84
2023/09/06 09:51:50;;;;;;;;;8.40;8.40;;;;;28.49;45.49;101048.13;6183608;23;45434;-84
2023/09/06 09:54:17;;;;;;;;;12.25;8.75;;;;;28.68;44.79;101071.31;6182484;22;45290;-82
2023/09/06 09:56:51;;;;;;;;;10.50;9.00;;;;;28.71;44.82;101060.00;6181075;23;45368;-86
2023/09/06 09:59:20;;;;;;;;;9.20;9.00;;;;;28.83;45.11;101074.03;6182904;22;45271;-87
2023/09/06 10:01:51;;;;;;;;;13.60;10.60;;;;;28.77;44.02;101053.72;6183038;22;45222;-83
2023/09/06 10:04:19;;;;;;;;;10.00;9.00;;;;;28.93;44.56;101066.38;6183512;23;45398;-87
2023/09/06 10:06:46;;;;;;;;;10.50;9.00;;;;;28.94;44.49;101046.16;6184019;23;45641;-88
2023/09/06 10:09:14;;;;;;;;;12.25;11.25;;;;;29.16;44.25;101057.94;6186473;22;46522;-88
2023/09/06 10:11:41;;;;;;;;;15.60;13.00;;;;;29.03;43.92;101023.06;6184600;23;45366;-87
2023/09/06 10:14:08;;;;;;;;;11.40;10.40;;;;;29.10;43.97;101010.28;6193109;23;44690;-89
2023/09/06 10:16:33;;;;;;;;;12.25;11.00;;;;;29.38;43.81;101052.25;6185496;22;45458;-84
2023/09/06 10:18:59;;;;;;;;;7.25;5.75;;;;;29.30;43.31;101033.25;6182534;23;45539;-86
2023/09/06 10:21:25;;;;;;;;;8.75;8.25;;;;;29.57;43.96;101055.41;6190448;23;45323;-84
2023/09/06 10:23:51;;;;;;;;;19.80;15.20;;;;;29.61;43.42;101046.59;6191347;22;45165;-87
2023/09/06 10:26:29;;;;;;;;;7.00;7.00;;;;;29.45;42.99;101000.28;6187927;23;45214;-84
2023/09/06 10:28:58;;;;;;;;;10.40;8.60;;;;;29.85;43.24;101042.53;6194583;23;45568;-84
2023/09/06 10:31:35;;;;;;;;;11.20;10.00;;;;;29.94;42.98;101046.78;6191474;22;45260;-83
2023/09/06 10:34:00;;;;;;;;;10.20;9.20;;;;;29.99;42.66;101042.63;6193381;22;45319;-82
2023/09/06 10:36:27;;;;;;;;;9.75;9.75;;;;;30.02;42.40;101023.00;6187336;22;45324;-80
2023/09/06 10:38:52;;;;;;;;;10.00;8.80;;;;;30.29;42.17;101044.06;6186171;22;45312;-81
2023/09/06 10:41:22;;;;;;;;;9.00;9.00;;;;;30.47;42.15;101035.25;6185776;23;45759;-82
2023/09/06 10:44:01;;;;;;;;;14.40;12.80;;;;;30.59;41.97;101032.75;6185223;22;45676;-81
2023/09/06 10:46:29;;;;;;;;;12.60;10.60;;;;;30.76;41.49;101034.13;6187754;22;45358;-80
2023/09/06 10:49:14;;;;;;;;;7.20;7.20;;;;;30.95;40.63;101030.56;6188821;22;45212;-82
2023/09/06 10:52:00;;;;;;;;;10.60;9.00;;;;;31.20;40.69;101030.00;6186429;22;45344;-83
2023/09/06 10:54:42;;;;;;;;;7.80;7.80;;;;;31.53;42.99;101025.34;6192389;22;45277;-82
2023/09/06 10:57:10;;;;;;;;;30.25;22.50;;;;;31.89;42.15;101021.28;6189062;23;45307;-85
2023/09/06 10:59:37;;;;;;;;;15.80;14.60;;;;;32.25;39.09;101021.59;6184792;23;48039;-85
2023/09/06 11:02:16;;;;;;;;;12.20;10.80;;;;;32.57;38.84;101018.94;6186301;22;45296;-85
2023/09/06 11:04:43;;;;;;;;;10.40;8.60;;;;;32.83;37.54;101016.06;6183958;23;45227;-85
2023/09/06 11:07:12;;;;;;;;;20.80;13.80;;;;;33.04;37.07;101005.72;6184615;22;45528;-86
2023/09/06 11:09:44;;;;;;;;;16.40;10.80;;;;;33.55;37.33;101013.78;6182947;22;45395;-87
2023/09/06 11:12:15;;;;;;;;;9.00;7.20;;;;;33.77;35.95;101000.44;6184158;22;45395;-87